• Join FlightAware (Why Join?)
  • Login
  • US Flag 
10:13PM EDT


 

Airport Tracker/Info


-or-


 

Live Flight TrackerFlight Track Log ✈ N213HP ✈ 16-Mar-2014 ✈ KASE - KADS

Flight Track Log - Related Links

Times and Time Zones

All times are in EDT time to prevent confusion due to time zone crossing. See the N213HP flight status page for this flight to view local times or setup timezone preferences in your user account.

Time Position Orientation Groundspeed Altitude Reporting Facility
EDT Latitude Longitude Course Direction KTS MPH feet Rate Location/Type
02:29PM 39.2814 -106.9358 173° South 258 297 10,900  Level Denver Center
02:30PM 39.3075 -107.0358 289° West 287 330 13,400 2,640 Climbing Denver Center
02:31PM 39.2892 -107.1408 257° West 334 384 16,400 2,640 Climbing Denver Center
02:32PM 39.1972 -107.1261 173° South 363 418 18,900 2,100 Climbing Denver Center
02:33PM 39.1175 -107.0244 135° Southeast 370 426 20,800 1,920 Climbing Denver Center
02:34PM 39.1198 -107.1167 180° South  Level FlightAware Approximate
02:34PM 38.9881 -107.0158 177° South 414 476 22,900  Level Denver Center
02:35PM 39.0299 -107.1105 173° South  Level FlightAware Approximate
02:35PM 38.8722 -107.0231 183° South 420 483 25,000  Level Denver Center
02:36PM 38.7531 -107.0272 182° South 426 490 27,100 1,980 Climbing Denver Center
02:37PM 38.6333 -107.0331 182° South 427 491 29,200 1,500 Climbing Denver Center
02:38PM 38.5133 -107.0364 181° South 429 494 30,300 1,020 Climbing Denver Center
02:39PM 38.3736 -106.9611 157° South 462 532 31,400 960 Climbing Denver Center
02:40PM 38.2936 -106.8233 126° Southeast 459 528 32,400 1,380 Climbing Denver Center
02:41PM 38.2278 -106.6958 123° Southeast 454 522 34,300 1,920 Climbing Denver Center
02:42PM 38.1497 -106.5586 126° Southeast 430 495 36,400 1,200 Climbing Denver Center
02:43PM 38.0886 -106.4481 125° Southeast 436 502 36,800 420 Climbing Denver Center
02:44PM 38.0133 -106.3064 124° Southeast 447 514 37,300 540 Climbing Denver Center
02:45PM 37.9278 -106.1581 126° Southeast 462 532 38,000 780 Climbing Denver Center
02:47PM 37.8308 -105.9900 126° Southeast 461 531 39,200 480 Climbing Denver Center
02:48PM 37.7586 -105.8636 126° Southeast 461 531 39,100 -180 Descending Denver Center
02:49PM 37.6708 -105.7089 126° Southeast 481 554 38,900 -120 Descending Denver Center
02:50PM 37.5950 -105.5781 126° Southeast 482 555 38,900  Level Denver Center
02:51PM 37.5083 -105.4253 126° Southeast 483 556 38,900  Level Denver Center
02:52PM 37.4325 -105.2933 126° Southeast 483 556 38,900 240 Level Denver Center
02:53PM 37.3428 -105.1386 126° Southeast 487 560 39,500 480 Climbing Denver Center
02:54PM 37.2683 -105.0094 126° Southeast 485 558 40,000 540 Climbing Denver Center
02:55PM 37.1808 -104.8622 127° Southeast 478 550 40,700 540 Climbing Denver Center
02:56PM 37.1075 -104.7372 126° Southeast 473 544 41,200 180 Climbing Denver Center
02:57PM 37.0208 -104.5914 127° Southeast 468 539 41,100 -180 Descending Denver Center
02:58PM 36.9439 -104.4625 127° Southeast 477 549 40,900 -60 Descending Denver Center
02:59PM 36.8783 -104.3508 126° Southeast 490 564 41,000  Climbing Albuquerque Center
03:00PM 36.7856 -104.1972 127° Southeast 496 571 41,000  Level Albuquerque Center
03:01PM 36.7056 -104.0633 127° Southeast 502 578 41,000 -60 Level Albuquerque Center
03:02PM 36.6203 -103.9167 126° Southeast 502 578 40,900  Descending Albuquerque Center
03:03PM 36.5564 -103.7653 118° Southeast 494 568 41,000  Climbing Albuquerque Center
03:04PM 36.4775 -103.5906 119° Southeast 492 566 41,000  Level Albuquerque Center
03:05PM 36.4094 -103.4389 119° Southeast 495 570 41,000  Level Albuquerque Center
03:06PM 36.3425 -103.2911 119° Southeast 489 563 41,000  Level Albuquerque Center
03:07PM 36.2731 -103.1403 120° Southeast 494 568 41,000  Level Albuquerque Center
03:08PM 36.2047 -102.9925 120° Southeast 491 565 41,000 -60 Level Albuquerque Center
03:09PM 36.1311 -102.8322 120° Southeast 491 565 40,900 -60 Descending Albuquerque Center
03:10PM 36.0633 -102.6867 120° Southeast 490 564 40,900  Level Albuquerque Center
03:11PM 35.9958 -102.5403 120° Southeast 490 564 41,000  Climbing Albuquerque Center
03:12PM 35.9297 -102.3972 120° Southeast 484 557 41,000  Level Albuquerque Center
03:13PM 35.8625 -102.2553 120° Southeast 480 552 41,000 -60 Level Albuquerque Center
03:14PM 35.7967 -102.1144 120° Southeast 475 547 40,900 -60 Descending Albuquerque Center
03:15PM 35.7169 -101.9475 120° Southeast 472 543 40,900  Level Albuquerque Center
03:16PM 35.6517 -101.8100 120° Southeast 466 536 40,900  Level Albuquerque Center
03:17PM 35.5858 -101.6719 120° Southeast 466 536 41,000  Climbing Albuquerque Center
03:18PM 35.5203 -101.5322 120° Southeast 466 536 40,900 -60 Descending Albuquerque Center
03:19PM 35.4489 -101.3783 120° Southeast 466 536 40,900  Level Albuquerque Center
03:21PM 35.3858 -101.2525 122° Southeast 471 542 41,000  Climbing Albuquerque Center
03:22PM 35.3181 -101.1139 121° Southeast 472 543 41,000  Level Albuquerque Center
03:23PM 35.2511 -100.9761 121° Southeast 471 542 41,000 -60 Level Albuquerque Center
03:24PM 35.1706 -100.8106 121° Southeast 471 542 40,900  Descending Albuquerque Center
03:25PM 35.1028 -100.6731 121° Southeast 471 542 41,000  Climbing Albuquerque Center
03:26PM 35.0350 -100.5347 121° Southeast 474 545 41,000 -60 Level Albuquerque Center
03:27PM 34.9672 -100.3975 121° Southeast 473 544 40,900 -60 Descending Albuquerque Center
03:28PM 34.8922 -100.2478 121° Southeast 478 550 40,900 -120 Level Albuquerque Center
03:29PM 34.8222 -100.1083 121° Southeast 482 555 40,700 -360 Descending Albuquerque Center
03:30PM 34.7514 -99.9658 121° Southeast 490 564 40,200 -540 Descending Albuquerque Center
03:31PM 34.6769 -99.8203 122° Southeast 502 578 39,700 -660 Descending Albuquerque Center
03:32PM 34.5753 -99.6172 121° Southeast 502 578 38,700 -900 Descending Fort Worth Center
03:33PM 34.5039 -99.4769 122° Southeast 493 567 37,600 -1,140 Descending Fort Worth Center
03:34PM 34.4200 -99.3147 122° Southeast 481 554 36,400 -1,140 Descending Fort Worth Center
03:35PM 34.3489 -99.1764 122° Southeast 480 552 35,300 -1,020 Descending Fort Worth Center
03:36PM 34.2803 -99.0419 122° Southeast 479 551 34,300 -1,260 Descending Fort Worth Center
03:37PM 34.2103 -98.9075 122° Southeast 476 548 32,800 -1,260 Descending Fort Worth Center
03:38PM 34.1386 -98.7697 122° Southeast 479 551 31,800 -1,020 Descending Fort Worth Center
03:39PM 34.0606 -98.6211 122° Southeast 479 551 30,700 -1,020 Descending Fort Worth Center
03:41PM 33.9967 -98.4978 122° Southeast 443 510 29,700 -1,020 Descending Fort Worth Center
03:42PM 33.9344 -98.3789 122° Southeast 426 490 28,600 -1,740 Descending Fort Worth Center
03:43PM 33.8744 -98.2650 122° Southeast 410 472 26,100 -2,640 Descending Fort Worth Center
03:44PM 33.8058 -98.1342 122° Southeast 390 449 23,100 -2,760 Descending Fort Worth Center
03:45PM 33.7494 -98.0267 122° Southeast 367 422 20,400 -2,640 Descending Fort Worth Center
03:46PM 33.6942 -97.9228 123° Southeast 354 407 17,700 -2,760 Descending Fort Worth Center
03:47PM 33.6436 -97.8272 122° Southeast 352 405 14,800 -2,520 Descending Fort Worth Center
03:48PM 33.5881 -97.7244 123° Southeast 347 399 12,500 -1,920 Descending Fort Worth Center
03:49PM 33.5258 -97.6119 124° Southeast 377 434 10,900 -1,200 Descending Fort Worth Center
03:50PM 33.4761 -97.5139 121° Southeast 344 396 10,100 -1,020 Descending Fort Worth Center
03:51PM 33.4275 -97.4417 129° Southeast 286 329 8,800 -1,440 Descending Fort Worth Center
03:52PM 33.3911 -97.3622 119° Southeast 256 295 7,200 -1,440 Descending Fort Worth Center
03:53PM 33.3697 -97.2800 107° East 259 298 5,800 -1,320 Descending Fort Worth Center
03:54PM 33.3422 -97.1894 110° East 265 305 4,500 -840 Descending Fort Worth Center
03:55PM 33.3067 -97.1083 118° Southeast 275 316 4,100 -300 Descending Fort Worth Center
03:56PM 33.2553 -97.0411 132° Southeast 274 315 4,000 -420 Descending Fort Worth Center
03:57PM 33.2058 -96.9678 129° Southeast 266 306 3,300 -540 Descending Fort Worth Center
03:58PM 33.1547 -96.8967 131° Southeast 276 318 3,000 -180 Descending Fort Worth Center
03:59PM 33.1000 -96.8333 136° Southeast 278 320 3,000 -60 Level Dallas / Fort Worth TRACON
04:00PM 33.0333 -96.7833 148° Southeast 255 293 2,900 -360 Descending Dallas / Fort Worth TRACON
04:01PM 32.9667 -96.7500 157° South 224 258 2,300 -480 Descending Dallas / Fort Worth TRACON
04:02PM 32.9333 -96.7667 203° Southwest 178 205 2,000 -480 Descending Dallas / Fort Worth TRACON
04:03PM 32.9333 -96.8167 270° West 129 148 1,300 -660 Descending Dallas / Fort Worth TRACON